Time;durP1;ratioP1;P1;durP2;ratioP2;P2;SDS_P1;SDS_P2;PMS_P1;PMS_P2;Temp;Humidity;BMP_temperature;BMP_pressure;BME280_temperature;BME280_humidity;BME280_pressure;Samples;Min_cycle;Max_cycle;Signal;HPM_P1;HPM_P2
2020/12/28 00:01:14;;;;;;;2.35;0.55;;;7.40;87.30;;;;;;4995704;28;20057;-89
2020/12/28 00:03:40;;;;;;;0.88;0.40;;;7.40;87.30;;;;;;5008504;28;20112;-89
2020/12/28 00:06:07;;;;;;;1.77;0.50;;;7.30;87.70;;;;;;4993301;28;20567;-92
2020/12/28 00:08:34;;;;;;;1.70;0.60;;;7.30;88.10;;;;;;5000992;28;20574;-91
2020/12/28 00:11:01;;;;;;;1.35;0.50;;;7.40;87.70;;;;;;4976441;28;20057;-89
2020/12/28 00:13:27;;;;;;;1.92;0.52;;;7.30;88.60;;;;;;4999790;28;20555;-90
2020/12/28 00:15:55;;;;;;;1.20;0.60;;;7.20;88.60;;;;;;4996289;28;20137;-88
2020/12/28 00:18:22;;;;;;;1.73;0.70;;;7.20;89.00;;;;;;4976541;28;20054;-90
2020/12/28 00:20:48;;;;;;;1.67;0.50;;;7.20;89.20;;;;;;5010707;28;20056;-90
2020/12/28 00:23:15;;;;;;;1.20;0.55;;;7.40;88.80;;;;;;5010873;28;20133;-90
2020/12/28 00:25:42;;;;;;;1.98;0.63;;;7.40;88.90;;;;;;4999597;28;20058;-92
2020/12/28 00:28:09;;;;;;;1.25;0.47;;;7.30;89.40;;;;;;5007515;28;20050;-91
2020/12/28 00:30:35;;;;;;;1.92;0.70;;;7.40;89.30;;;;;;4991989;28;20505;-91
2020/12/28 00:33:03;;;;;;;1.65;0.70;;;7.20;89.50;;;;;;4992154;28;20165;-92
2020/12/28 00:35:29;;;;;;;1.95;0.70;;;7.20;90.00;;;;;;4992727;28;20141;-90
2020/12/28 00:37:56;;;;;;;2.03;0.70;;;7.30;90.00;;;;;;5005364;28;20049;-92
2020/12/28 00:40:23;;;;;;;2.53;0.60;;;7.20;90.00;;;;;;4995356;28;20548;-93
2020/12/28 00:42:49;;;;;;;1.23;0.50;;;7.30;90.00;;;;;;5010917;28;20548;-91
2020/12/28 00:45:16;;;;;;;1.45;0.60;;;7.30;89.90;;;;;;5011018;28;20133;-90
2020/12/28 00:47:43;;;;;;;1.02;0.50;;;7.30;89.80;;;;;;4999102;28;20046;-90
2020/12/28 00:50:10;;;;;;;1.75;0.60;;;7.30;90.00;;;;;;5007337;28;20054;-91
2020/12/28 00:52:37;;;;;;;2.47;0.50;;;7.20;90.30;;;;;;4975359;28;20415;-91
2020/12/28 00:55:04;;;;;;;1.25;0.50;;;7.20;90.40;;;;;;4958958;28;20108;-91
2020/12/28 00:57:30;;;;;;;0.88;0.40;;;7.10;90.70;;;;;;4984329;28;20125;-91
2020/12/28 00:59:57;;;;;;;1.05;0.38;;;7.20;90.70;;;;;;4979969;28;20060;-91
2020/12/28 01:02:25;;;;;;;1.33;0.40;;;7.20;90.60;;;;;;4976747;28;20046;-91
2020/12/28 01:04:52;;;;;;;0.88;0.40;;;7.10;90.50;;;;;;4988624;28;20133;-92
2020/12/28 01:07:19;;;;;;;1.50;0.40;;;7.10;90.40;;;;;;5000069;28;20582;-90
2020/12/28 01:09:46;;;;;;;1.13;0.45;;;7.10;90.50;;;;;;4993202;28;20058;-89
2020/12/28 01:12:12;;;;;;;1.08;0.50;;;7.10;90.60;;;;;;4992216;28;20045;-90
2020/12/28 01:14:39;;;;;;;0.90;0.40;;;7.10;90.50;;;;;;4975358;28;20133;-90
2020/12/28 01:17:07;;;;;;;0.85;0.38;;;7.10;90.90;;;;;;4980739;28;20103;-90
2020/12/28 01:19:34;;;;;;;1.58;0.52;;;6.90;91.00;;;;;;4982113;28;20052;-90
2020/12/28 01:22:00;;;;;;;0.93;0.40;;;7.00;90.90;;;;;;5005756;28;20050;-90
2020/12/28 01:24:28;;;;;;;1.65;0.35;;;7.00;91.10;;;;;;4994617;28;20064;-92
2020/12/28 01:26:54;;;;;;;2.10;0.43;;;6.90;91.30;;;;;;5008775;28;20124;-92
2020/12/28 01:29:21;;;;;;;0.90;0.35;;;6.90;91.30;;;;;;5001212;28;20133;-92
2020/12/28 01:31:47;;;;;;;1.48;0.43;;;6.80;91.40;;;;;;5004113;28;20053;-92
2020/12/28 01:34:14;;;;;;;0.43;0.30;;;6.80;91.30;;;;;;4994021;28;20460;-92
2020/12/28 01:36:40;;;;;;;0.80;0.40;;;6.90;91.30;;;;;;4994708;28;20189;-92
2020/12/28 01:39:07;;;;;;;1.42;0.60;;;6.90;91.40;;;;;;5003374;28;20054;-92
2020/12/28 01:41:35;;;;;;;0.88;0.40;;;6.90;91.40;;;;;;4991022;28;20182;-92
2020/12/28 01:44:01;;;;;;;1.13;0.40;;;6.70;91.50;;;;;;5004408;28;20133;-91
2020/12/28 01:46:29;;;;;;;1.10;0.40;;;6.70;91.60;;;;;;5004196;28;20505;-92
2020/12/28 01:48:56;;;;;;;0.60;0.30;;;6.80;91.50;;;;;;4962703;28;20057;-89
2020/12/28 01:51:23;;;;;;;0.63;0.30;;;6.90;91.60;;;;;;5006373;28;20045;-90
2020/12/28 01:53:51;;;;;;;1.23;0.40;;;6.90;91.50;;;;;;4991548;28;20042;-90
2020/12/28 01:56:20;;;;;;;1.85;0.40;;;6.90;91.40;;;;;;4991140;28;20155;-93
2020/12/28 01:58:48;;;;;;;1.23;0.47;;;6.90;91.40;;;;;;5003359;28;20046;-90
2020/12/28 02:01:17;;;;;;;0.77;0.30;;;6.80;90.90;;;;;;5009462;28;20141;-93
2020/12/28 02:03:43;;;;;;;0.60;0.32;;;6.80;90.70;;;;;;5003876;28;20057;-91
2020/12/28 02:06:10;;;;;;;0.70;0.30;;;6.80;90.60;;;;;;4991035;28;20138;-91
2020/12/28 02:08:37;;;;;;;1.08;0.38;;;6.80;90.60;;;;;;5006264;28;20133;-92
2020/12/28 02:11:04;;;;;;;0.85;0.30;;;6.60;91.20;;;;;;4997008;28;20042;-91
2020/12/28 02:13:33;;;;;;;1.02;0.45;;;6.70;91.40;;;;;;4997460;28;20046;-91
2020/12/28 02:16:01;;;;;;;0.30;0.20;;;6.70;91.70;;;;;;4987266;28;20052;-93
2020/12/28 02:18:28;;;;;;;2.83;0.50;;;6.80;91.90;;;;;;4994336;28;20046;-92
2020/12/28 02:20:54;;;;;;;2.30;0.63;;;6.70;92.00;;;;;;5002440;28;20133;-93
2020/12/28 02:23:22;;;;;;;1.27;0.45;;;6.60;92.10;;;;;;5004212;28;20149;-93
2020/12/28 02:25:49;;;;;;;1.02;0.40;;;6.60;92.60;;;;;;5003706;28;20160;-93
2020/12/28 02:28:15;;;;;;;0.80;0.30;;;6.60;92.40;;;;;;5009141;28;20140;-92
2020/12/28 02:30:42;;;;;;;1.48;0.50;;;6.60;92.20;;;;;;4994969;28;20585;-92
2020/12/28 02:33:09;;;;;;;0.43;0.30;;;6.60;92.20;;;;;;4985639;28;20056;-93
2020/12/28 02:35:35;;;;;;;0.50;0.30;;;6.60;92.00;;;;;;4984606;28;20136;-94
2020/12/28 02:38:02;;;;;;;1.35;0.30;;;6.70;91.50;;;;;;4995067;28;20506;-92
2020/12/28 02:40:29;;;;;;;1.42;0.40;;;6.70;91.20;;;;;;5006480;28;20498;-94
2020/12/28 02:42:56;;;;;;;1.10;0.30;;;6.80;91.20;;;;;;4998281;28;20132;-91
2020/12/28 02:45:23;;;;;;;1.05;0.35;;;6.70;91.20;;;;;;5004362;28;20137;-89
2020/12/28 02:47:50;;;;;;;1.48;0.30;;;6.70;91.10;;;;;;4994600;28;20043;-88
2020/12/28 02:50:17;;;;;;;1.23;0.20;;;6.70;91.00;;;;;;5009662;28;20053;-88
2020/12/28 02:52:46;;;;;;;1.00;0.40;;;6.80;91.10;;;;;;4997821;28;20064;-88
2020/12/28 02:55:13;;;;;;;0.93;0.32;;;6.90;90.90;;;;;;5011347;28;20077;-89
2020/12/28 02:57:40;;;;;;;1.52;0.40;;;6.80;91.10;;;;;;4984677;28;20129;-89
2020/12/28 03:00:07;;;;;;;1.13;0.40;;;7.00;91.00;;;;;;4994785;28;20064;-91
2020/12/28 03:02:34;;;;;;;1.10;0.40;;;6.90;91.00;;;;;;5010847;28;20042;-90
2020/12/28 03:05:01;;;;;;;1.67;0.45;;;6.90;91.00;;;;;;5001996;28;20124;-89
2020/12/28 03:07:27;;;;;;;0.63;0.28;;;6.70;91.10;;;;;;5014946;28;20160;-89
2020/12/28 03:09:55;;;;;;;0.63;0.30;;;6.90;91.20;;;;;;4988987;28;20121;-89
2020/12/28 03:12:21;;;;;;;1.00;0.40;;;6.90;91.00;;;;;;5023806;28;20062;-89
2020/12/28 03:14:49;;;;;;;1.15;0.40;;;6.80;90.50;;;;;;5019317;28;20077;-90
2020/12/28 03:17:16;;;;;;;1.25;0.50;;;6.90;90.60;;;;;;4997130;28;20092;-91
2020/12/28 03:19:42;;;;;;;0.47;0.30;;;7.00;90.20;;;;;;5007638;28;20053;-89
2020/12/28 03:22:09;;;;;;;0.95;0.40;;;7.00;90.00;;;;;;5000181;28;20137;-90
2020/12/28 03:24:36;;;;;;;1.20;0.30;;;7.00;89.70;;;;;;5001551;28;20499;-89
2020/12/28 03:27:03;;;;;;;0.93;0.35;;;7.00;88.40;;;;;;4996544;28;20133;-89
2020/12/28 03:29:29;;;;;;;1.08;0.50;;;7.00;88.40;;;;;;4998543;28;20137;-89
2020/12/28 03:31:57;;;;;;;0.65;0.30;;;7.10;89.00;;;;;;5014708;28;20137;-89
2020/12/28 03:34:24;;;;;;;1.85;0.43;;;7.00;89.00;;;;;;4997571;28;20080;-90
2020/12/28 03:36:51;;;;;;;1.55;0.40;;;7.00;89.00;;;;;;5003243;28;20121;-89
2020/12/28 03:39:18;;;;;;;0.75;0.40;;;6.90;89.10;;;;;;5025718;28;20068;-90
2020/12/28 03:41:44;;;;;;;1.40;0.38;;;6.90;89.40;;;;;;5011790;28;20121;-90
2020/12/28 03:44:11;;;;;;;1.13;0.43;;;6.90;89.40;;;;;;5008668;28;20761;-89
2020/12/28 03:46:37;;;;;;;0.65;0.30;;;6.90;88.90;;;;;;4995360;28;20129;-90
2020/12/28 03:49:05;;;;;;;0.57;0.32;;;7.00;88.40;;;;;;4995479;28;20141;-90
2020/12/28 03:51:31;;;;;;;1.30;0.40;;;6.90;88.80;;;;;;4995137;28;20050;-90
2020/12/28 03:53:58;;;;;;;1.45;0.40;;;6.90;88.50;;;;;;5003167;28;20455;-91
2020/12/28 03:56:25;;;;;;;1.00;0.40;;;7.00;88.40;;;;;;5003158;28;20133;-89
2020/12/28 03:58:51;;;;;;;0.82;0.68;;;7.10;88.30;;;;;;4978116;28;20133;-89
2020/12/28 04:01:18;;;;;;;1.83;0.50;;;7.00;88.40;;;;;;4995757;28;20052;-89
2020/12/28 04:03:45;;;;;;;1.30;0.30;;;7.20;88.00;;;;;;5002222;28;20050;-89
2020/12/28 04:06:12;;;;;;;1.52;0.57;;;7.00;87.90;;;;;;4986772;28;20140;-91
2020/12/28 04:08:39;;;;;;;0.95;0.40;;;7.20;87.70;;;;;;4992565;28;20141;-89
2020/12/28 04:11:06;;;;;;;0.77;0.30;;;7.10;87.90;;;;;;5006818;28;20053;-90
2020/12/28 04:13:32;;;;;;;3.60;0.40;;;7.10;87.70;;;;;;4993254;28;20054;-91
2020/12/28 04:15:59;;;;;;;0.93;0.30;;;7.10;87.00;;;;;;5000605;28;20141;-89
2020/12/28 04:18:26;;;;;;;1.17;0.30;;;7.20;86.80;;;;;;5008942;28;20045;-89
2020/12/28 04:20:53;;;;;;;1.58;0.40;;;7.20;86.70;;;;;;5006426;28;20400;-89
2020/12/28 04:23:20;;;;;;;1.10;0.47;;;7.10;86.80;;;;;;4991184;28;20107;-92
2020/12/28 04:25:47;;;;;;;1.05;0.50;;;7.20;87.10;;;;;;4980277;28;20056;-91
2020/12/28 04:28:13;;;;;;;0.32;0.20;;;7.20;86.80;;;;;;5011906;28;20137;-90
2020/12/28 04:30:40;;;;;;;0.85;0.38;;;7.10;87.00;;;;;;4979842;28;20520;-88
2020/12/28 04:33:07;;;;;;;0.90;0.28;;;7.10;87.80;;;;;;4993055;28;20054;-88
2020/12/28 04:35:34;;;;;;;0.68;0.30;;;7.00;88.30;;;;;;5001515;28;20134;-89
2020/12/28 04:38:00;;;;;;;1.55;0.30;;;7.00;89.70;;;;;;4993292;28;20058;-90
2020/12/28 04:40:28;;;;;;;1.75;0.30;;;7.10;89.80;;;;;;5009121;28;20050;-89
2020/12/28 04:42:56;;;;;;;0.90;0.40;;;7.10;90.00;;;;;;4988466;28;20488;-89
2020/12/28 04:45:22;;;;;;;0.95;0.30;;;7.10;90.10;;;;;;5000873;28;20060;-89
2020/12/28 04:47:49;;;;;;;0.68;0.30;;;7.20;90.10;;;;;;4998209;28;20107;-90
2020/12/28 04:50:16;;;;;;;1.85;0.38;;;7.10;90.20;;;;;;5007833;28;20133;-89
2020/12/28 04:52:43;;;;;;;1.13;0.30;;;7.20;90.20;;;;;;4995663;28;20041;-89
2020/12/28 04:55:09;;;;;;;1.20;0.40;;;7.20;90.20;;;;;;5003478;28;20548;-88
2020/12/28 04:57:37;;;;;;;1.25;0.40;;;7.30;90.20;;;;;;5002372;28;20050;-89
2020/12/28 05:00:05;;;;;;;1.85;0.40;;;7.20;90.30;;;;;;4996054;28;20054;-88
2020/12/28 05:02:33;;;;;;;0.32;0.20;;;7.30;90.30;;;;;;4976337;28;20491;-89
2020/12/28 05:05:06;;;;;;;0.47;0.30;;;7.10;90.40;;;;;;5003684;28;20073;-87
2020/12/28 05:07:33;;;;;;;1.25;0.40;;;7.10;90.60;;;;;;5001420;28;20057;-88
2020/12/28 05:10:00;;;;;;;0.80;0.40;;;7.10;90.50;;;;;;5001625;28;20188;-88
2020/12/28 05:12:27;;;;;;;1.05;0.40;;;7.10;90.50;;;;;;5010324;28;20053;-90
2020/12/28 05:15:06;;;;;;;0.80;0.40;;;7.10;90.40;;;;;;4997482;28;20054;-92
2020/12/28 05:17:33;;;;;;;1.48;0.52;;;7.10;90.40;;;;;;5009212;28;20141;-91
2020/12/28 05:20:00;;;;;;;1.63;0.30;;;7.10;90.50;;;;;;5010386;28;20053;-89
2020/12/28 05:22:28;;;;;;;0.65;0.30;;;7.20;90.50;;;;;;5000503;28;20050;-90
2020/12/28 05:24:56;;;;;;;0.85;0.32;;;7.00;90.70;;;;;;5004640;28;20100;-89
2020/12/28 05:27:23;;;;;;;0.90;0.28;;;6.90;91.10;;;;;;5007414;28;20510;-89
2020/12/28 05:29:51;;;;;;;1.65;0.45;;;6.90;91.60;;;;;;4996203;28;20062;-89
2020/12/28 05:32:19;;;;;;;1.20;0.40;;;7.00;91.90;;;;;;5002024;28;20485;-89
2020/12/28 05:34:47;;;;;;;0.63;0.32;;;7.00;92.50;;;;;;5003431;28;20046;-88
2020/12/28 05:37:14;;;;;;;1.92;0.30;;;7.00;92.90;;;;;;4994079;28;20124;-89
2020/12/28 05:39:42;;;;;;;0.98;0.40;;;7.00;93.50;;;;;;4974809;28;20056;-89
2020/12/28 05:42:11;;;;;;;1.55;0.40;;;7.00;94.00;;;;;;4991198;28;20130;-91
2020/12/28 05:44:38;;;;;;;0.98;0.40;;;6.80;94.20;;;;;;5001875;28;20046;-89
2020/12/28 05:47:09;;;;;;;1.92;0.60;;;6.70;94.20;;;;;;4995370;28;20082;-89
2020/12/28 05:49:39;;;;;;;0.80;0.30;;;6.60;94.80;;;;;;5007044;28;20423;-90
2020/12/28 05:52:07;;;;;;;1.67;0.60;;;6.70;94.90;;;;;;4997208;28;20140;-88
2020/12/28 05:54:35;;;;;;;1.80;0.40;;;6.40;95.10;;;;;;4982530;28;20065;-91
2020/12/28 05:57:02;;;;;;;0.88;0.50;;;6.50;94.60;;;;;;5005341;28;20491;-90
2020/12/28 05:59:31;;;;;;;1.40;0.50;;;6.50;95.10;;;;;;4994072;28;20560;-90
2020/12/28 06:01:59;;;;;;;1.45;0.60;;;6.40;95.50;;;;;;5005522;28;20133;-88
2020/12/28 06:04:26;;;;;;;1.60;0.80;;;6.50;95.60;;;;;;4999494;28;20066;-89
2020/12/28 06:06:59;;;;;;;0.95;0.40;;;6.40;95.90;;;;;;5004991;28;20153;-90
2020/12/28 06:09:26;;;;;;;1.85;0.55;;;6.50;96.00;;;;;;5000501;28;20105;-89
2020/12/28 06:12:03;;;;;;;2.13;0.60;;;6.50;95.70;;;;;;5005314;28;20484;-90
2020/12/28 06:14:34;;;;;;;2.05;0.50;;;6.50;95.90;;;;;;5001227;28;20064;-90
2020/12/28 06:17:05;;;;;;;0.98;0.50;;;6.50;96.10;;;;;;4998372;28;20051;-89
2020/12/28 06:19:32;;;;;;;3.17;0.50;;;6.60;96.50;;;;;;4998453;28;20054;-89
2020/12/28 06:21:59;;;;;;;1.38;0.50;;;6.50;96.60;;;;;;5008756;28;20141;-89
2020/12/28 06:24:30;;;;;;;1.25;0.50;;;6.60;96.20;;;;;;5012240;28;20498;-90
2020/12/28 06:27:01;;;;;;;1.50;0.50;;;6.60;96.10;;;;;;5014419;28;20058;-90
2020/12/28 06:29:28;;;;;;;1.63;0.50;;;6.60;95.60;;;;;;5004794;28;20126;-89
2020/12/28 06:31:55;;;;;;;1.25;0.40;;;6.70;95.90;;;;;;5008276;28;20056;-89
2020/12/28 06:34:22;;;;;;;1.20;0.50;;;6.80;96.40;;;;;;5007260;28;20137;-89
2020/12/28 06:37:00;;;;;;;2.15;0.63;;;6.70;96.20;;;;;;5006875;28;20317;-90
2020/12/28 06:39:27;;;;;;;1.58;0.52;;;6.70;96.50;;;;;;4996202;28;20054;-89
2020/12/28 06:41:54;;;;;;;1.38;0.40;;;6.70;96.50;;;;;;4999823;28;20133;-90
2020/12/28 06:44:27;;;;;;;1.35;0.50;;;6.70;96.70;;;;;;5012863;28;20066;-90
2020/12/28 06:46:54;;;;;;;1.83;0.40;;;6.70;96.70;;;;;;5000991;28;20493;-89
2020/12/28 06:49:21;;;;;;;1.52;0.52;;;6.70;96.40;;;;;;4995590;28;20177;-90
2020/12/28 06:51:47;;;;;;;2.05;0.68;;;6.70;96.70;;;;;;4978823;28;20053;-91
2020/12/28 06:54:22;;;;;;;1.10;0.50;;;6.60;96.60;;;;;;5004974;28;20061;-91
2020/12/28 06:56:50;;;;;;;2.00;0.88;;;6.50;96.50;;;;;;5001401;28;20050;-88
2020/12/28 06:59:16;;;;;;;2.03;0.70;;;6.60;96.70;;;;;;5009871;28;20058;-90
2020/12/28 07:01:46;;;;;;;2.40;0.68;;;6.70;96.60;;;;;;5009004;28;20746;-90
2020/12/28 07:04:14;;;;;;;1.95;0.70;;;6.60;96.90;;;;;;5002127;28;20137;-90
2020/12/28 07:06:41;;;;;;;0.95;0.50;;;6.50;96.80;;;;;;5001512;28;20058;-87
2020/12/28 07:09:09;;;;;;;1.80;0.55;;;6.50;96.50;;;;;;5008670;28;20470;-87
2020/12/28 07:11:36;;;;;;;1.92;0.85;;;6.60;97.30;;;;;;4994996;28;20062;-86
2020/12/28 07:14:04;;;;;;;1.40;0.50;;;6.50;96.90;;;;;;4999465;28;20046;-85
2020/12/28 07:16:31;;;;;;;1.38;0.50;;;6.50;97.10;;;;;;4999356;28;20077;-93
2020/12/28 07:19:05;;;;;;;1.95;0.60;;;6.50;96.90;;;;;;4988886;28;20050;-91
2020/12/28 07:21:32;;;;;;;1.90;0.47;;;6.50;97.40;;;;;;4988435;28;20051;-91
2020/12/28 07:23:59;;;;;;;1.27;0.50;;;6.50;97.10;;;;;;5000992;28;20125;-92
2020/12/28 07:26:27;;;;;;;2.10;0.70;;;6.50;97.40;;;;;;4988147;28;20110;-91
2020/12/28 07:28:55;;;;;;;1.27;0.60;;;6.40;97.30;;;;;;4987574;28;20081;-91
2020/12/28 07:31:22;;;;;;;1.35;0.50;;;6.30;97.30;;;;;;4989697;28;20043;-91
2020/12/28 07:33:50;;;;;;;1.98;0.70;;;6.10;97.90;;;;;;4993223;28;20039;-92
2020/12/28 07:36:20;;;;;;;1.25;0.55;;;5.90;98.30;;;;;;4998545;28;20156;-92
2020/12/28 07:38:49;;;;;;;1.75;0.60;;;6.00;98.90;;;;;;4990620;28;20077;-88
2020/12/28 07:41:16;;;;;;;2.00;0.90;;;5.80;99.20;;;;;;4981023;28;20163;-88
2020/12/28 07:43:54;;;;;;;2.08;0.90;;;5.50;99.90;;;;;;4996504;28;20081;-87
2020/12/28 07:46:52;;;;;;;2.47;0.85;;;5.50;99.70;;;;;;5000236;28;20077;-87
2020/12/28 07:49:21;;;;;;;2.88;1.00;;;5.40;99.70;;;;;;5011603;28;20509;-94
2020/12/28 07:51:55;;;;;;;2.50;0.90;;;5.70;99.80;;;;;;5000998;28;20141;-92
2020/12/28 07:54:23;;;;;;;2.72;1.05;;;5.60;99.70;;;;;;5010245;28;20405;-91
2020/12/28 07:56:53;;;;;;;2.38;0.90;;;5.80;99.50;;;;;;4978154;28;20105;-93
2020/12/28 07:59:38;;;;;;;1.73;0.80;;;5.90;99.00;;;;;;5002714;28;20148;-94
2020/12/28 08:02:47;;;;;;;3.40;0.82;;;5.90;99.30;;;;;;5012039;28;20076;-88
2020/12/28 08:05:14;;;;;;;2.45;0.90;;;5.70;99.90;;;;;;4965848;28;20390;-94
2020/12/28 08:07:41;;;;;;;2.58;0.85;;;5.70;99.90;;;;;;4993520;28;20073;-89
2020/12/28 08:10:10;;;;;;;2.65;1.08;;;5.60;99.90;;;;;;5009265;28;20053;-85
2020/12/28 08:12:41;;;;;;;2.97;1.02;;;5.70;99.90;;;;;;5002492;28;20124;-85
2020/12/28 08:15:09;;;;;;;2.78;1.10;;;5.90;99.80;;;;;;4995550;28;20058;-84
2020/12/28 08:17:35;;;;;;;2.00;0.80;;;6.10;99.80;;;;;;5007177;28;21747;-84
2020/12/28 08:20:08;;;;;;;2.75;1.08;;;5.90;99.90;;;;;;4996399;28;20586;-86
2020/12/28 08:22:35;;;;;;;2.42;0.90;;;5.90;99.90;;;;;;4992773;28;20133;-90
2020/12/28 08:25:04;;;;;;;2.33;1.00;;;5.90;99.90;;;;;;5003197;28;20080;-88
2020/12/28 08:27:33;;;;;;;2.95;1.00;;;5.90;99.40;;;;;;5011418;28;20052;-87
2020/12/28 08:30:00;;;;;;;2.42;0.90;;;5.90;99.30;;;;;;4996242;28;20468;-90
2020/12/28 08:32:29;;;;;;;2.17;0.80;;;6.00;99.30;;;;;;4992306;28;20144;-90
2020/12/28 08:34:57;;;;;;;2.55;1.10;;;6.10;98.70;;;;;;4988952;28;20072;-92
2020/12/28 08:37:25;;;;;;;2.28;0.95;;;6.20;98.60;;;;;;4995309;28;20049;-91
2020/12/28 08:39:52;;;;;;;2.90;1.10;;;6.20;98.40;;;;;;4997642;28;20081;-91
2020/12/28 08:42:28;;;;;;;5.13;1.80;;;5.90;98.70;;;;;;4995505;28;20050;-88
2020/12/28 08:44:55;;;;;;;4.25;1.52;;;6.00;98.90;;;;;;4998731;28;20081;-91
2020/12/28 08:47:26;;;;;;;3.38;1.42;;;6.20;98.70;;;;;;4994467;28;20471;-90
2020/12/28 08:49:53;;;;;;;3.10;1.17;;;6.10;98.90;;;;;;4990003;28;20050;-90
2020/12/28 08:52:22;;;;;;;3.47;1.45;;;6.00;98.70;;;;;;4990448;28;20065;-87
2020/12/28 08:54:56;;;;;;;2.08;1.00;;;6.00;98.90;;;;;;4991601;28;20060;-88
2020/12/28 08:57:25;;;;;;;2.30;1.00;;;6.10;99.00;;;;;;4981350;28;20138;-88
2020/12/28 08:59:52;;;;;;;1.63;0.60;;;5.90;98.70;;;;;;4984338;28;20142;-87
2020/12/28 09:02:21;;;;;;;2.05;0.80;;;5.90;98.80;;;;;;4990204;28;20508;-88
2020/12/28 09:04:48;;;;;;;3.17;0.77;;;6.20;98.70;;;;;;4994243;28;20050;-89
2020/12/28 09:07:17;;;;;;;2.20;0.80;;;6.20;98.60;;;;;;4994552;28;20046;-87
2020/12/28 09:09:45;;;;;;;2.95;1.08;;;6.20;98.50;;;;;;4992968;28;20065;-88
2020/12/28 09:12:12;;;;;;;2.78;0.73;;;6.20;98.20;;;;;;4993631;28;20064;-86
2020/12/28 09:14:39;;;;;;;2.42;0.80;;;6.30;98.20;;;;;;4988006;28;20137;-87
2020/12/28 09:17:07;;;;;;;2.20;0.75;;;6.30;98.40;;;;;;4987744;28;20440;-88
2020/12/28 09:19:34;;;;;;;1.88;0.77;;;6.30;98.50;;;;;;4990618;28;20046;-89
2020/12/28 09:22:03;;;;;;;3.13;1.27;;;6.20;98.50;;;;;;4991626;28;20141;-88
2020/12/28 09:24:30;;;;;;;2.50;1.08;;;6.00;98.90;;;;;;4990715;28;20396;-88
2020/12/28 09:26:58;;;;;;;2.88;1.27;;;5.80;98.90;;;;;;4992071;28;20082;-89
2020/12/28 09:29:25;;;;;;;3.17;1.38;;;5.70;99.10;;;;;;4989755;28;20062;-88
2020/12/28 09:31:51;;;;;;;3.22;1.50;;;5.80;99.50;;;;;;4999782;28;20133;-88
2020/12/28 09:34:18;;;;;;;4.13;1.52;;;5.70;98.90;;;;;;4974057;28;20056;-89
2020/12/28 09:36:44;;;;;;;3.20;1.50;;;5.70;98.80;;;;;;4996891;28;20050;-88
2020/12/28 09:39:11;;;;;;;4.15;1.73;;;5.90;98.80;;;;;;5000224;28;20133;-86
2020/12/28 09:41:39;;;;;;;3.40;1.70;;;5.80;99.10;;;;;;4996244;28;20275;-90
2020/12/28 09:44:05;;;;;;;3.55;1.80;;;5.70;99.10;;;;;;4988868;28;20051;-88
2020/12/28 09:46:32;;;;;;;3.55;1.77;;;5.70;98.70;;;;;;4988914;28;20141;-86
2020/12/28 09:48:59;;;;;;;4.43;1.80;;;5.90;98.40;;;;;;5000163;28;20081;-92
2020/12/28 09:51:26;;;;;;;3.47;1.88;;;6.10;98.00;;;;;;4997926;28;20064;-94
2020/12/28 09:53:52;;;;;;;3.78;2.08;;;6.20;97.80;;;;;;4980317;28;20050;-91
2020/12/28 09:56:19;;;;;;;4.68;2.40;;;6.10;97.40;;;;;;4997192;28;20080;-89
2020/12/28 09:58:46;;;;;;;5.88;2.58;;;6.10;97.50;;;;;;4999689;28;20141;-92
2020/12/28 10:01:13;;;;;;;4.95;2.60;;;6.00;97.40;;;;;;4989012;28;20046;-93
2020/12/28 10:03:40;;;;;;;4.75;2.30;;;6.00;97.80;;;;;;4970791;28;20086;-86
2020/12/28 10:08:47;;;;;;;5.53;2.50;;;6.20;97.80;;;;;;4999856;28;20591;-87
2020/12/28 10:11:14;;;;;;;3.85;2.00;;;6.20;97.50;;;;;;4996507;28;20046;-87
2020/12/28 10:13:40;;;;;;;3.97;2.00;;;6.20;96.90;;;;;;4997182;28;20133;-83
2020/12/28 10:16:08;;;;;;;3.15;1.73;;;6.20;96.70;;;;;;4998059;28;20137;-86
2020/12/28 10:18:41;;;;;;;3.65;1.95;;;6.40;96.90;;;;;;4997290;28;20219;-90
2020/12/28 10:21:10;;;;;;;3.63;2.10;;;6.60;96.80;;;;;;5000961;28;20061;-91
2020/12/28 10:23:37;;;;;;;3.95;1.98;;;6.70;96.70;;;;;;4995735;28;20460;-93
2020/12/28 10:26:06;;;;;;;3.20;1.70;;;6.80;96.00;;;;;;4996266;28;20144;-92
2020/12/28 10:28:35;;;;;;;3.13;1.80;;;6.80;95.80;;;;;;4996701;28;20092;-91
2020/12/28 10:31:01;;;;;;;3.60;1.95;;;6.90;95.90;;;;;;4999254;28;20051;-93
2020/12/28 10:33:29;;;;;;;3.72;1.90;;;6.80;95.50;;;;;;5004254;28;20502;-89
2020/12/28 10:35:56;;;;;;;3.67;1.90;;;6.90;95.90;;;;;;5007402;28;20082;-92
2020/12/28 10:38:22;;;;;;;3.45;1.80;;;6.70;95.90;;;;;;5003464;28;20559;-87
2020/12/28 10:40:49;;;;;;;5.60;2.65;;;6.60;95.10;;;;;;4994115;28;20055;-83
2020/12/28 10:43:15;;;;;;;4.18;2.30;;;6.60;95.80;;;;;;4995341;28;20053;-83
2020/12/28 10:45:42;;;;;;;6.15;2.45;;;6.60;95.50;;;;;;4996812;28;20058;-86
2020/12/28 10:48:09;;;;;;;3.80;2.00;;;6.60;95.60;;;;;;4993053;28;20483;-87
2020/12/28 10:50:36;;;;;;;4.30;2.10;;;6.60;95.90;;;;;;4996456;28;20060;-91
2020/12/28 10:53:03;;;;;;;3.92;1.85;;;6.80;95.80;;;;;;4994141;28;20343;-88
2020/12/28 10:55:29;;;;;;;3.72;1.95;;;6.70;95.50;;;;;;4998721;28;20210;-88
2020/12/28 10:57:56;;;;;;;3.72;2.13;;;6.60;95.80;;;;;;4995541;28;20518;-86
2020/12/28 11:00:22;;;;;;;4.30;2.03;;;6.70;96.50;;;;;;4993772;28;20058;-83
2020/12/28 11:02:49;;;;;;;5.57;2.40;;;6.60;96.50;;;;;;4995762;28;20331;-84
2020/12/28 11:05:16;;;;;;;6.18;2.25;;;6.70;96.40;;;;;;5001749;28;20049;-85
2020/12/28 11:07:43;;;;;;;4.30;2.33;;;6.70;96.40;;;;;;5000567;28;20038;-81
2020/12/28 11:10:10;;;;;;;4.05;2.10;;;6.80;96.30;;;;;;4996868;28;20476;-89
2020/12/28 11:12:37;;;;;;;4.53;2.50;;;6.80;96.20;;;;;;5002054;28;20137;-87
2020/12/28 11:15:03;;;;;;;4.93;2.63;;;6.80;96.40;;;;;;5002766;28;20528;-86
2020/12/28 11:17:30;;;;;;;5.20;2.65;;;6.80;95.30;;;;;;4997538;28;20121;-84
2020/12/28 11:19:57;;;;;;;4.97;2.45;;;7.00;95.70;;;;;;4997919;28;20058;-87
2020/12/28 11:22:23;;;;;;;3.85;2.22;;;7.00;95.60;;;;;;4990606;28;20568;-86
2020/12/28 11:24:51;;;;;;;5.35;2.38;;;6.80;95.40;;;;;;4993432;28;20141;-87
2020/12/28 11:27:17;;;;;;;4.88;2.30;;;6.90;94.90;;;;;;5000062;28;20908;-87
2020/12/28 11:29:44;;;;;;;4.82;2.00;;;6.80;94.80;;;;;;4999930;28;20151;-86
2020/12/28 11:32:10;;;;;;;3.70;2.10;;;7.00;94.80;;;;;;4993083;28;20081;-89
2020/12/28 11:34:37;;;;;;;4.15;2.05;;;7.00;93.70;;;;;;4994523;28;20057;-85
2020/12/28 11:37:05;;;;;;;4.22;2.28;;;7.00;94.20;;;;;;5004487;28;20133;-83
2020/12/28 11:39:32;;;;;;;4.25;2.10;;;7.10;94.00;;;;;;5001676;28;20904;-89
2020/12/28 11:41:59;;;;;;;4.18;2.10;;;7.20;94.50;;;;;;4997322;28;20133;-86
2020/12/28 11:44:26;;;;;;;3.30;1.80;;;7.20;94.90;;;;;;5007519;28;20056;-85
2020/12/28 11:46:55;;;;;;;4.18;1.60;;;7.20;95.30;;;;;;5001675;28;20479;-89
2020/12/28 11:49:22;;;;;;;3.20;1.65;;;7.20;94.00;;;;;;4994794;28;20054;-86
2020/12/28 11:51:52;;;;;;;4.00;1.88;;;7.10;93.20;;;;;;5006476;28;20058;-85
2020/12/28 11:54:19;;;;;;;3.92;1.50;;;7.10;93.60;;;;;;4997366;28;20133;-88
2020/12/28 11:56:46;;;;;;;3.00;1.27;;;7.00;92.90;;;;;;4997077;28;20045;-88
2020/12/28 11:59:13;;;;;;;3.00;1.38;;;6.80;92.70;;;;;;5004352;28;20104;-90
2020/12/28 12:01:40;;;;;;;2.30;1.10;;;7.00;91.90;;;;;;4986390;28;20226;-89
2020/12/28 12:04:06;;;;;;;2.90;1.30;;;6.80;92.10;;;;;;4996141;28;20068;-88
2020/12/28 12:06:33;;;;;;;4.13;1.45;;;6.70;91.30;;;;;;5007549;28;20141;-85
2020/12/28 12:09:12;;;;;;;4.32;1.58;;;6.70;91.10;;;;;;4998668;28;20221;-90
2020/12/28 12:11:43;;;;;;;2.63;1.20;;;6.60;91.40;;;;;;5002032;28;20097;-89
2020/12/28 12:14:11;;;;;;;2.70;1.13;;;6.60;91.40;;;;;;5008047;28;20062;-90
2020/12/28 12:16:39;;;;;;;3.15;1.23;;;6.30;92.00;;;;;;4990779;28;20100;-90
2020/12/28 12:19:05;;;;;;;3.97;1.40;;;6.30;92.50;;;;;;4998604;28;20141;-88
2020/12/28 12:21:33;;;;;;;2.60;1.20;;;6.30;92.40;;;;;;5001378;28;20058;-89
2020/12/28 12:24:00;;;;;;;3.10;1.40;;;6.40;92.80;;;;;;4991240;28;20081;-91
2020/12/28 12:26:27;;;;;;;3.75;1.45;;;6.30;93.30;;;;;;5008493;28;20129;-93
2020/12/28 12:28:55;;;;;;;2.72;1.27;;;6.20;93.80;;;;;;4997154;28;20080;-85
2020/12/28 12:31:22;;;;;;;3.65;1.50;;;6.40;93.30;;;;;;5008461;28;20057;-89
2020/12/28 12:33:50;;;;;;;3.58;1.48;;;6.20;93.70;;;;;;5007984;28;20488;-91
2020/12/28 12:36:17;;;;;;;3.15;1.50;;;6.20;94.30;;;;;;4992478;28;20050;-87
2020/12/28 12:38:44;;;;;;;3.45;1.25;;;6.20;94.50;;;;;;5004653;28;20517;-89
2020/12/28 12:41:15;;;;;;;3.25;1.38;;;6.20;94.00;;;;;;4996328;28;20149;-88
2020/12/28 12:43:42;;;;;;;2.83;1.15;;;6.30;93.90;;;;;;4982600;28;20050;-89
2020/12/28 12:46:10;;;;;;;2.65;1.17;;;6.40;94.20;;;;;;5000682;28;20105;-87
2020/12/28 12:48:39;;;;;;;3.40;1.10;;;6.50;93.70;;;;;;4997402;28;20144;-89
2020/12/28 12:51:07;;;;;;;2.80;1.10;;;6.60;93.50;;;;;;4989825;28;20061;-89
2020/12/28 12:53:34;;;;;;;2.25;1.13;;;6.70;93.50;;;;;;4974607;28;20411;-90
2020/12/28 12:56:01;;;;;;;4.38;1.08;;;6.60;93.40;;;;;;4977994;28;20047;-88
2020/12/28 12:58:28;;;;;;;2.13;0.80;;;6.60;93.20;;;;;;4988560;28;20145;-89
2020/12/28 13:00:54;;;;;;;1.70;0.73;;;6.60;93.60;;;;;;4988758;28;20133;-89
2020/12/28 13:03:21;;;;;;;2.38;1.10;;;6.60;93.50;;;;;;4989957;28;20854;-88